createdAt,value
2023-05-18T00:01:17.417Z,61.31
2023-05-18T00:03:55.474Z,61.40
2023-05-18T00:06:29.139Z,61.24
2023-05-18T00:09:02.985Z,61.14
2023-05-18T00:11:40.492Z,61.21
2023-05-18T00:14:14.104Z,61.11
2023-05-18T00:16:48.026Z,61.20
2023-05-18T00:19:22.200Z,61.37
2023-05-18T00:21:56.318Z,61.24
2023-05-18T00:24:30.142Z,61.20
2023-05-18T00:27:03.437Z,61.30
2023-05-18T00:29:37.091Z,61.20
2023-05-18T00:32:10.872Z,61.23
2023-05-18T00:34:44.642Z,61.20
2023-05-18T00:37:18.827Z,61.33
2023-05-18T00:39:52.810Z,61.48
2023-05-18T00:42:26.530Z,61.31
2023-05-18T00:45:00.204Z,61.26
2023-05-18T00:47:33.966Z,61.30
2023-05-18T00:50:09.184Z,61.31
2023-05-18T00:52:43.128Z,61.39
2023-05-18T00:55:17.217Z,61.33
2023-05-18T00:57:50.874Z,61.37
2023-05-18T01:00:24.781Z,61.43
2023-05-18T01:02:58.608Z,61.38
2023-05-18T01:05:32.673Z,61.56
2023-05-18T01:08:06.882Z,61.60
2023-05-18T01:10:43.121Z,61.47
2023-05-18T01:13:33.138Z,61.59
2023-05-18T01:16:11.705Z,61.63
2023-05-18T01:18:55.395Z,61.48
2023-05-18T01:21:52.960Z,61.38
2023-05-18T01:24:36.916Z,61.37
2023-05-18T01:27:12.144Z,61.45
2023-05-18T01:29:47.592Z,61.58
2023-05-18T01:32:24.015Z,61.61
2023-05-18T01:34:57.708Z,61.67
2023-05-18T01:37:31.951Z,61.67
2023-05-18T01:40:06.722Z,61.57
2023-05-18T01:42:45.935Z,61.57
2023-05-18T01:45:26.605Z,61.61
2023-05-18T01:48:03.929Z,61.81
2023-05-18T01:50:41.893Z,61.82
2023-05-18T01:53:22.718Z,61.95
2023-05-18T01:55:57.854Z,61.97
2023-05-18T01:58:32.950Z,61.95
2023-05-18T02:01:08.537Z,61.85
2023-05-18T02:03:43.046Z,61.76
2023-05-18T02:06:16.716Z,61.86
2023-05-18T02:08:51.276Z,62.11
2023-05-18T02:11:24.958Z,62.00
2023-05-18T02:13:59.350Z,62.12
2023-05-18T02:16:33.490Z,62.24
2023-05-18T02:19:07.715Z,62.32
2023-05-18T02:21:42.033Z,62.46
2023-05-18T02:24:15.694Z,62.51
2023-05-18T02:26:49.743Z,62.63
2023-05-18T02:29:23.533Z,62.72
2023-05-18T02:31:57.480Z,62.89
2023-05-18T02:34:34.217Z,62.90
2023-05-18T02:37:08.400Z,62.91
2023-05-18T02:39:42.019Z,63.02
2023-05-18T02:42:15.716Z,63.18
2023-05-18T02:44:49.688Z,63.29
2023-05-18T02:47:23.537Z,63.31
2023-05-18T02:49:57.224Z,63.41
2023-05-18T02:52:31.279Z,63.49
2023-05-18T02:55:05.726Z,63.41
2023-05-18T02:57:57.659Z,63.47
2023-05-18T03:00:43.713Z,63.54
2023-05-18T03:03:17.983Z,63.62
2023-05-18T03:05:54.212Z,63.69
2023-05-18T03:08:29.141Z,63.72
2023-05-18T03:11:02.933Z,63.83
2023-05-18T03:13:40.111Z,63.76
2023-05-18T03:16:13.696Z,63.85
2023-05-18T03:18:47.346Z,63.93
2023-05-18T03:21:22.329Z,63.95
2023-05-18T03:23:56.260Z,63.92
2023-05-18T03:26:31.323Z,63.96
2023-05-18T03:29:04.928Z,63.89
2023-05-18T03:31:39.517Z,64.01
2023-05-18T03:34:13.756Z,64.06
2023-05-18T03:36:48.583Z,64.01
2023-05-18T03:39:22.765Z,63.97
2023-05-18T03:41:56.805Z,63.92
2023-05-18T03:44:31.223Z,64.12
2023-05-18T03:47:05.180Z,64.15
2023-05-18T03:49:42.115Z,63.98
2023-05-18T03:52:22.745Z,64.19
2023-05-18T03:54:56.740Z,64.03
2023-05-18T03:57:31.181Z,64.00
2023-05-18T04:00:12.602Z,63.89
2023-05-18T04:02:52.256Z,63.71
2023-05-18T04:05:29.056Z,63.72
2023-05-18T04:08:03.088Z,63.59
2023-05-18T04:10:37.279Z,63.61
2023-05-18T04:13:10.957Z,63.66
2023-05-18T04:15:45.252Z,63.58
2023-05-18T04:18:19.346Z,63.48
2023-05-18T04:20:53.241Z,63.45
2023-05-18T04:23:27.501Z,63.22
2023-05-18T04:26:01.826Z,63.22
2023-05-18T04:28:38.002Z,63.42
2023-05-18T04:31:14.851Z,63.25
2023-05-18T04:33:48.940Z,63.03
2023-05-18T04:36:26.533Z,62.76
2023-05-18T04:39:00.198Z,62.68
2023-05-18T04:41:34.719Z,62.68
2023-05-18T04:44:08.288Z,62.75
2023-05-18T04:46:42.217Z,62.77
2023-05-18T04:49:16.508Z,62.64
2023-05-18T04:51:50.798Z,62.58
2023-05-18T04:54:25.088Z,62.53
2023-05-18T04:56:59.394Z,62.51
2023-05-18T04:59:37.505Z,62.49
2023-05-18T05:02:11.656Z,62.47
2023-05-18T05:04:47.101Z,62.26
2023-05-18T05:07:21.656Z,62.42
2023-05-18T05:09:55.422Z,62.31
2023-05-18T05:12:29.332Z,62.27
2023-05-18T05:15:03.432Z,62.26
2023-05-18T05:17:37.894Z,62.06
2023-05-18T05:20:15.116Z,61.79
2023-05-18T05:22:49.354Z,61.89
2023-05-18T05:25:29.036Z,61.87
2023-05-18T05:28:02.777Z,61.63
2023-05-18T05:30:36.868Z,61.70
2023-05-18T05:33:10.511Z,61.66
2023-05-18T05:35:44.728Z,61.35
2023-05-18T05:38:18.375Z,61.45
2023-05-18T05:40:52.212Z,61.37
2023-05-18T05:43:26.274Z,61.15
2023-05-18T05:46:00.095Z,61.18
2023-05-18T05:48:34.937Z,61.26
2023-05-18T05:51:09.585Z,61.25
2023-05-18T05:53:43.900Z,60.80
2023-05-18T05:56:17.885Z,60.82
2023-05-18T05:58:52.162Z,60.59
2023-05-18T06:01:26.134Z,60.71
2023-05-18T06:04:00.208Z,60.58
2023-05-18T06:06:34.363Z,60.74
2023-05-18T06:09:09.194Z,60.67
2023-05-18T06:11:42.873Z,60.69
2023-05-18T06:14:17.146Z,60.62
2023-05-18T06:16:51.514Z,60.02
2023-05-18T06:19:25.759Z,60.15
2023-05-18T06:22:00.315Z,59.93
2023-05-18T06:24:36.674Z,59.50
2023-05-18T06:27:32.279Z,59.44
2023-05-18T06:30:36.216Z,58.88
2023-05-18T06:33:18.327Z,58.66
2023-05-18T06:35:52.270Z,58.39
2023-05-18T06:38:26.679Z,58.21
2023-05-18T06:41:00.770Z,58.33
2023-05-18T06:43:34.918Z,57.81
2023-05-18T06:46:32.425Z,57.07
2023-05-18T06:49:13.562Z,56.57
2023-05-18T06:51:47.642Z,56.52
2023-05-18T06:54:22.712Z,56.47
2023-05-18T06:56:56.922Z,56.40
2023-05-18T06:59:31.492Z,56.16
2023-05-18T07:02:05.692Z,55.27
2023-05-18T07:04:39.468Z,55.25
2023-05-18T07:07:13.549Z,54.97
2023-05-18T07:09:50.113Z,54.52
2023-05-18T07:12:24.240Z,54.32
2023-05-18T07:14:57.751Z,54.32
2023-05-18T07:17:32.111Z,54.02
2023-05-18T07:20:07.458Z,53.82
2023-05-18T07:22:41.032Z,53.30
2023-05-18T07:25:14.841Z,53.03
2023-05-18T07:27:48.604Z,53.44
2023-05-18T07:30:22.274Z,53.14
2023-05-18T07:32:56.965Z,52.39
2023-05-18T07:35:31.454Z,52.13
2023-05-18T07:38:05.723Z,52.29
2023-05-18T07:40:39.750Z,51.86
2023-05-18T07:43:13.685Z,51.96
2023-05-18T07:45:47.739Z,52.11
2023-05-18T07:48:21.411Z,52.34
2023-05-18T07:50:55.797Z,51.80
2023-05-18T07:53:29.452Z,51.42
2023-05-18T07:56:04.504Z,51.19
2023-05-18T07:58:38.658Z,50.87
2023-05-18T08:01:12.360Z,50.42
2023-05-18T08:03:46.404Z,49.98
2023-05-18T08:06:20.928Z,49.93
2023-05-18T08:08:57.343Z,50.31
2023-05-18T08:11:31.063Z,49.59
2023-05-18T08:14:04.830Z,49.18
2023-05-18T08:16:38.655Z,48.52
2023-05-18T08:19:12.714Z,48.32
2023-05-18T08:21:46.699Z,48.44
2023-05-18T08:24:20.797Z,48.56
2023-05-18T08:26:54.658Z,48.30
2023-05-18T08:29:28.483Z,47.51
2023-05-18T08:32:02.366Z,46.98
2023-05-18T08:34:36.335Z,46.92
2023-05-18T08:37:10.254Z,46.64
2023-05-18T08:39:46.506Z,47.08
2023-05-18T08:42:27.702Z,47.12
2023-05-18T08:45:16.375Z,46.88
2023-05-18T08:47:54.320Z,46.56
2023-05-18T08:50:33.393Z,46.65
2023-05-18T08:53:09.125Z,46.84
2023-05-18T08:55:44.178Z,46.57
2023-05-18T08:58:21.910Z,46.83
2023-05-18T09:00:56.381Z,46.81
2023-05-18T09:03:31.113Z,46.55
2023-05-18T09:06:05.283Z,46.65
2023-05-18T09:08:39.356Z,46.60
2023-05-18T09:11:14.616Z,46.48
2023-05-18T09:13:48.431Z,46.55
2023-05-18T09:16:22.208Z,46.66
2023-05-18T09:18:56.311Z,46.37
2023-05-18T09:21:32.771Z,46.60
2023-05-18T09:24:07.955Z,46.80
2023-05-18T09:26:42.311Z,46.93
2023-05-18T09:29:24.610Z,46.92
2023-05-18T09:31:58.483Z,47.18
2023-05-18T09:34:43.292Z,47.45
2023-05-18T09:37:20.460Z,47.57
2023-05-18T09:40:06.465Z,47.40
2023-05-18T09:42:41.851Z,47.13
2023-05-18T09:45:24.605Z,47.16
2023-05-18T09:47:58.017Z,47.11
2023-05-18T09:50:32.888Z,47.05
2023-05-18T09:53:08.245Z,46.55
2023-05-18T09:55:50.660Z,46.52
2023-05-18T09:58:24.685Z,46.65
2023-05-18T10:01:04.302Z,46.22
2023-05-18T10:03:40.917Z,46.14
2023-05-18T10:06:15.450Z,46.48
2023-05-18T10:08:50.938Z,46.46
2023-05-18T10:11:25.121Z,46.38
2023-05-18T10:14:00.220Z,46.14
2023-05-18T10:16:35.843Z,46.20
2023-05-18T10:19:10.817Z,45.96
2023-05-18T10:21:46.533Z,45.23
2023-05-18T10:24:23.506Z,44.92
2023-05-18T10:26:58.558Z,45.25
2023-05-18T10:29:34.368Z,45.58
2023-05-18T10:32:13.837Z,45.80
2023-05-18T10:34:48.019Z,45.66
2023-05-18T10:37:24.068Z,45.30
2023-05-18T10:40:00.411Z,45.55
2023-05-18T10:42:34.909Z,45.42
2023-05-18T10:45:20.054Z,45.20
2023-05-18T10:47:55.593Z,45.15
2023-05-18T10:50:30.343Z,45.16
2023-05-18T10:53:05.156Z,45.09
2023-05-18T10:55:39.309Z,44.47
2023-05-18T10:58:17.203Z,44.15
2023-05-18T11:00:54.169Z,43.91
2023-05-18T11:03:28.968Z,43.77
2023-05-18T11:06:11.307Z,43.94
2023-05-18T11:08:51.032Z,44.08
2023-05-18T11:11:30.605Z,44.16
2023-05-18T11:14:31.397Z,44.20
2023-05-18T11:17:23.065Z,44.10
2023-05-18T11:20:17.975Z,43.64
2023-05-18T11:23:04.208Z,43.35
2023-05-18T11:25:46.614Z,43.34
2023-05-18T11:28:23.968Z,43.40
2023-05-18T11:30:57.953Z,43.49
2023-05-18T11:33:32.787Z,43.64
2023-05-18T11:36:11.921Z,43.57
2023-05-18T11:38:56.391Z,43.56
2023-05-18T11:41:42.932Z,43.32
2023-05-18T11:44:29.896Z,43.17
2023-05-18T11:47:08.947Z,42.78
2023-05-18T11:49:47.811Z,42.79
2023-05-18T11:52:20.999Z,42.72
2023-05-18T11:54:56.332Z,42.86
2023-05-18T11:57:40.789Z,42.82
2023-05-18T12:00:17.490Z,43.03
2023-05-18T12:02:53.178Z,43.10
2023-05-18T12:05:32.257Z,42.95
2023-05-18T12:08:06.929Z,43.05
2023-05-18T12:10:41.600Z,42.94
2023-05-18T12:13:16.286Z,43.01
2023-05-18T12:15:51.071Z,43.40
2023-05-18T12:18:24.682Z,43.73
2023-05-18T12:20:58.949Z,43.72
2023-05-18T12:23:40.378Z,43.46
2023-05-18T12:26:14.887Z,43.76
2023-05-18T12:28:48.777Z,43.85
2023-05-18T12:31:22.670Z,43.81
2023-05-18T12:33:59.196Z,43.53
2023-05-18T12:36:34.104Z,43.42
2023-05-18T12:39:07.886Z,43.43
2023-05-18T12:41:41.316Z,43.72
2023-05-18T12:44:15.310Z,43.61
2023-05-18T12:46:49.749Z,43.69
2023-05-18T12:49:23.680Z,43.54
2023-05-18T12:51:58.497Z,42.99
2023-05-18T12:54:33.458Z,43.02
2023-05-18T12:57:10.344Z,43.33
2023-05-18T12:59:51.687Z,43.32
2023-05-18T13:02:41.772Z,43.21
2023-05-18T13:05:16.236Z,43.69
2023-05-18T13:07:50.004Z,43.74
2023-05-18T13:10:23.655Z,44.12
2023-05-18T13:13:02.063Z,44.07
2023-05-18T13:15:39.162Z,43.86
2023-05-18T13:18:13.278Z,43.96
2023-05-18T13:20:52.321Z,44.10
2023-05-18T13:23:29.323Z,43.76
2023-05-18T13:26:02.866Z,44.04
2023-05-18T13:28:37.515Z,44.09
2023-05-18T13:31:12.964Z,44.27
2023-05-18T13:33:47.026Z,44.28
2023-05-18T13:36:21.020Z,44.64
2023-05-18T13:38:54.561Z,44.84
2023-05-18T13:41:28.469Z,44.84
2023-05-18T13:44:02.791Z,44.85
2023-05-18T13:46:38.316Z,44.86
2023-05-18T13:49:13.106Z,44.70
2023-05-18T13:51:48.534Z,44.74
2023-05-18T13:54:22.144Z,44.83
2023-05-18T13:56:56.153Z,45.12
2023-05-18T13:59:29.738Z,44.98
2023-05-18T14:02:03.670Z,45.10
2023-05-18T14:04:38.360Z,45.24
2023-05-18T14:07:12.902Z,45.46
2023-05-18T14:09:46.606Z,45.47
2023-05-18T14:12:20.842Z,45.57
2023-05-18T14:14:54.561Z,45.43
2023-05-18T14:17:30.075Z,45.22
2023-05-18T14:20:05.403Z,45.55
2023-05-18T14:22:39.343Z,45.78
2023-05-18T14:25:13.484Z,45.84
2023-05-18T14:27:47.577Z,45.69
2023-05-18T14:30:21.632Z,45.85
2023-05-18T14:32:55.602Z,45.77
2023-05-18T14:35:29.361Z,45.82
2023-05-18T14:38:04.200Z,46.09
2023-05-18T14:40:37.739Z,46.02
2023-05-18T14:43:11.225Z,46.10
2023-05-18T14:45:48.306Z,46.41
2023-05-18T14:48:27.749Z,46.37
2023-05-18T14:51:01.469Z,46.37
2023-05-18T14:53:35.374Z,46.39
2023-05-18T14:56:10.512Z,46.51
2023-05-18T14:58:44.360Z,46.64
2023-05-18T15:01:17.822Z,46.82
2023-05-18T15:03:51.760Z,46.78
2023-05-18T15:06:26.377Z,46.67
2023-05-18T15:09:00.240Z,46.93
2023-05-18T15:11:34.135Z,46.96
2023-05-18T15:14:08.310Z,47.05
2023-05-18T15:16:42.799Z,47.05
2023-05-18T15:19:17.325Z,47.11
2023-05-18T15:21:51.181Z,47.25
2023-05-18T15:24:25.293Z,47.36
2023-05-18T15:26:59.020Z,47.47
2023-05-18T15:29:32.940Z,47.68
2023-05-18T15:32:07.228Z,47.57
2023-05-18T15:34:41.145Z,47.63
2023-05-18T15:37:15.353Z,47.64
2023-05-18T15:39:49.188Z,47.78
2023-05-18T15:42:22.877Z,47.94
2023-05-18T15:44:56.580Z,48.17
2023-05-18T15:47:30.078Z,48.23
2023-05-18T15:50:04.717Z,48.01
2023-05-18T15:52:38.456Z,48.24
2023-05-18T15:55:13.060Z,48.07
2023-05-18T15:57:47.086Z,47.96
2023-05-18T16:00:24.192Z,47.83
2023-05-18T16:02:58.078Z,47.68
2023-05-18T16:05:32.271Z,47.38
2023-05-18T16:08:06.204Z,47.59
2023-05-18T16:10:40.105Z,47.54
2023-05-18T16:13:14.546Z,47.66
2023-05-18T16:15:48.526Z,47.89
2023-05-18T16:18:22.258Z,48.08
2023-05-18T16:20:56.783Z,48.17
2023-05-18T16:23:30.756Z,48.19
2023-05-18T16:26:05.853Z,48.34
2023-05-18T16:28:39.636Z,48.41
2023-05-18T16:31:14.019Z,48.45
2023-05-18T16:33:47.782Z,48.52
2023-05-18T16:36:21.508Z,48.76
2023-05-18T16:38:55.250Z,48.89
2023-05-18T16:41:28.769Z,48.80
2023-05-18T16:44:02.778Z,48.99
2023-05-18T16:46:37.098Z,49.12
2023-05-18T16:49:10.606Z,49.12
2023-05-18T16:51:44.572Z,49.41
2023-05-18T16:54:17.932Z,49.25
2023-05-18T16:56:52.325Z,49.17
2023-05-18T16:59:25.826Z,49.30
2023-05-18T17:01:59.409Z,49.27
2023-05-18T17:04:33.344Z,49.42
2023-05-18T17:07:07.824Z,49.66
2023-05-18T17:09:42.803Z,49.86
2023-05-18T17:12:16.664Z,49.82
2023-05-18T17:14:52.070Z,49.85
2023-05-18T17:17:26.451Z,49.98
2023-05-18T17:20:00.407Z,50.08
2023-05-18T17:22:35.223Z,49.99
2023-05-18T17:25:10.108Z,50.10
2023-05-18T17:27:44.178Z,50.21
2023-05-18T17:30:18.283Z,50.14
2023-05-18T17:32:52.033Z,50.20
2023-05-18T17:35:25.792Z,50.43
2023-05-18T17:38:00.056Z,50.43
2023-05-18T17:40:34.163Z,50.50
2023-05-18T17:43:08.659Z,50.56
2023-05-18T17:45:42.676Z,50.73
2023-05-18T17:48:16.505Z,50.96
2023-05-18T17:50:52.651Z,50.99
2023-05-18T17:53:26.583Z,51.11
2023-05-18T17:56:00.682Z,51.08
2023-05-18T17:58:36.391Z,51.10
2023-05-18T18:01:11.048Z,51.13
2023-05-18T18:03:45.478Z,51.23
2023-05-18T18:06:23.071Z,51.30
2023-05-18T18:08:58.978Z,51.45
2023-05-18T18:11:32.872Z,51.63
2023-05-18T18:14:06.954Z,51.62
2023-05-18T18:16:41.137Z,51.77
2023-05-18T18:19:16.311Z,51.80
2023-05-18T18:21:50.089Z,51.83
2023-05-18T18:24:24.323Z,51.96
2023-05-18T18:26:58.056Z,51.93
2023-05-18T18:29:32.751Z,52.18
2023-05-18T18:32:09.123Z,52.32
2023-05-18T18:34:45.408Z,52.29
2023-05-18T18:37:19.145Z,52.25
2023-05-18T18:39:53.958Z,52.31
2023-05-18T18:42:29.357Z,52.39
2023-05-18T18:45:05.638Z,52.43
2023-05-18T18:47:40.915Z,52.63
2023-05-18T18:50:14.853Z,52.71
2023-05-18T18:52:49.388Z,52.66
2023-05-18T18:55:24.734Z,52.55
2023-05-18T18:58:01.632Z,52.39
2023-05-18T19:00:37.285Z,52.42
2023-05-18T19:03:14.940Z,52.66
2023-05-18T19:05:49.056Z,52.65
2023-05-18T19:08:23.752Z,52.56
2023-05-18T19:10:58.276Z,52.78
2023-05-18T19:13:32.569Z,52.73
2023-05-18T19:16:08.380Z,52.98
2023-05-18T19:18:42.494Z,53.14
2023-05-18T19:21:17.754Z,53.13
2023-05-18T19:23:51.554Z,53.15
2023-05-18T19:26:27.191Z,53.21
2023-05-18T19:29:04.955Z,53.06
2023-05-18T19:31:39.208Z,53.20
2023-05-18T19:34:14.442Z,53.24
2023-05-18T19:36:48.536Z,53.29
2023-05-18T19:39:24.540Z,53.17
2023-05-18T19:41:58.744Z,53.18
2023-05-18T19:44:33.002Z,53.31
2023-05-18T19:47:07.809Z,53.55
2023-05-18T19:49:41.745Z,53.44
2023-05-18T19:52:17.790Z,53.58
2023-05-18T19:54:52.188Z,53.73
2023-05-18T19:57:26.810Z,53.63
2023-05-18T20:00:01.487Z,53.63
2023-05-18T20:02:35.435Z,53.59
2023-05-18T20:05:12.992Z,53.44
2023-05-18T20:07:47.248Z,53.54
2023-05-18T20:10:21.054Z,53.60
2023-05-18T20:12:55.474Z,53.59
2023-05-18T20:15:30.398Z,53.64
2023-05-18T20:18:06.581Z,53.59
2023-05-18T20:20:41.630Z,53.66
2023-05-18T20:23:15.290Z,53.53
2023-05-18T20:25:49.613Z,53.59
2023-05-18T20:28:26.471Z,53.58
2023-05-18T20:31:00.108Z,53.66
2023-05-18T20:33:34.902Z,53.65
2023-05-18T20:36:09.620Z,53.72
2023-05-18T20:38:44.676Z,53.83
2023-05-18T20:41:19.055Z,53.71
2023-05-18T20:43:52.747Z,53.69
2023-05-18T20:46:28.051Z,53.82
2023-05-18T20:49:02.000Z,53.77
2023-05-18T20:51:36.167Z,54.02
2023-05-18T20:54:09.829Z,54.19
2023-05-18T20:56:43.919Z,54.10
2023-05-18T20:59:18.705Z,54.16
2023-05-18T21:01:52.165Z,54.17
2023-05-18T21:04:26.119Z,54.48
2023-05-18T21:07:00.317Z,54.38
2023-05-18T21:09:34.847Z,54.37
2023-05-18T21:12:09.406Z,54.40
2023-05-18T21:14:43.331Z,54.43
2023-05-18T21:17:17.250Z,54.28
2023-05-18T21:19:51.288Z,54.11
2023-05-18T21:22:24.905Z,54.07
2023-05-18T21:24:58.384Z,54.20
2023-05-18T21:27:32.481Z,54.30
2023-05-18T21:30:07.046Z,54.43
2023-05-18T21:32:42.918Z,54.49
2023-05-18T21:35:17.421Z,54.64
2023-05-18T21:37:51.665Z,54.69
2023-05-18T21:40:25.432Z,54.82
2023-05-18T21:42:59.508Z,54.92
2023-05-18T21:45:33.454Z,54.91
2023-05-18T21:48:07.894Z,55.16
2023-05-18T21:50:42.299Z,55.40
2023-05-18T21:53:16.243Z,55.44
2023-05-18T21:55:49.925Z,55.43
2023-05-18T21:58:24.931Z,55.49
2023-05-18T22:00:58.975Z,55.61
2023-05-18T22:03:32.947Z,55.72
2023-05-18T22:06:06.775Z,55.69
2023-05-18T22:08:40.645Z,55.60
2023-05-18T22:11:14.654Z,55.51
2023-05-18T22:13:48.150Z,55.88
2023-05-18T22:16:22.428Z,55.91
2023-05-18T22:18:56.247Z,55.92
2023-05-18T22:21:30.480Z,55.85
2023-05-18T22:24:04.539Z,55.77
2023-05-18T22:26:39.100Z,55.74
2023-05-18T22:29:12.639Z,55.51
2023-05-18T22:31:46.267Z,55.53
2023-05-18T22:34:20.276Z,55.48
2023-05-18T22:36:54.231Z,55.53
2023-05-18T22:39:28.124Z,55.43
2023-05-18T22:42:02.145Z,55.38
2023-05-18T22:44:35.865Z,55.56
2023-05-18T22:47:11.740Z,55.80
2023-05-18T22:49:46.218Z,56.00
2023-05-18T22:52:20.081Z,56.00
2023-05-18T22:54:54.086Z,56.33
2023-05-18T22:57:27.685Z,56.42
2023-05-18T23:00:01.260Z,56.59
2023-05-18T23:02:34.951Z,56.69
2023-05-18T23:05:09.804Z,56.86
2023-05-18T23:07:43.407Z,57.00
2023-05-18T23:10:18.883Z,57.23
2023-05-18T23:12:53.325Z,57.17
2023-05-18T23:15:28.092Z,57.40
2023-05-18T23:18:02.182Z,57.45
2023-05-18T23:20:36.437Z,57.74
2023-05-18T23:23:10.521Z,57.88
2023-05-18T23:25:44.156Z,57.99
2023-05-18T23:28:17.848Z,58.23
2023-05-18T23:30:51.732Z,58.29
2023-05-18T23:33:26.962Z,58.53
2023-05-18T23:36:04.191Z,58.78
2023-05-18T23:38:38.322Z,58.97
2023-05-18T23:41:13.441Z,59.10
2023-05-18T23:43:48.469Z,59.24
2023-05-18T23:46:23.389Z,59.24
2023-05-18T23:48:58.213Z,59.28
2023-05-18T23:51:36.810Z,59.26
2023-05-18T23:54:13.393Z,59.48
2023-05-18T23:56:47.932Z,59.43
2023-05-18T23:59:21.994Z,59.56
